createdAt,value
2022-08-17T00:02:25.566Z,12.90
2022-08-17T00:04:54.208Z,19.33
2022-08-17T00:07:21.298Z,14.70
2022-08-17T00:09:48.210Z,15.60
2022-08-17T00:12:43.210Z,15.17
2022-08-17T00:15:01.589Z,13.53
2022-08-17T00:17:28.308Z,11.93
2022-08-17T00:19:54.907Z,22.07
2022-08-17T00:22:32.989Z,13.50
2022-08-17T00:25:03.594Z,18.30
2022-08-17T00:27:30.217Z,14.37
2022-08-17T00:29:56.912Z,15.90
2022-08-17T00:33:13.740Z,15.83
2022-08-17T00:35:11.143Z,19.70
2022-08-17T00:37:37.823Z,23.27
2022-08-17T00:40:05.984Z,28.70
2022-08-17T00:42:33.161Z,18.70
2022-08-17T00:44:59.801Z,13.97
2022-08-17T00:47:26.580Z,16.47
2022-08-17T00:49:53.565Z,17.67
2022-08-17T00:52:23.014Z,26.47
2022-08-17T00:54:52.324Z,61.80
2022-08-17T00:57:21.375Z,33.27
2022-08-17T01:00:02.182Z,30.87
2022-08-17T01:02:34.437Z,21.40
2022-08-17T01:05:08.138Z,26.23
2022-08-17T01:07:34.828Z,19.10
2022-08-17T01:10:06.574Z,19.03
2022-08-17T01:12:34.546Z,23.10
2022-08-17T01:15:01.244Z,27.27
2022-08-17T01:17:28.568Z,23.83
2022-08-17T01:19:55.726Z,22.00
2022-08-17T01:22:23.617Z,27.93
2022-08-17T01:24:53.511Z,33.13
2022-08-17T01:27:21.238Z,21.80
2022-08-17T01:29:50.163Z,31.37
2022-08-17T01:32:16.765Z,24.00
2022-08-17T01:34:50.584Z,23.83
2022-08-17T01:37:18.610Z,27.83
2022-08-17T01:39:48.210Z,23.80
2022-08-17T01:42:20.618Z,33.70
2022-08-17T01:44:47.329Z,28.17
2022-08-17T01:47:13.971Z,29.97
2022-08-17T01:49:40.624Z,25.80
2022-08-17T01:52:08.917Z,36.27
2022-08-17T01:54:37.174Z,33.10
2022-08-17T01:57:04.131Z,32.70
2022-08-17T01:59:30.749Z,40.57
2022-08-17T02:01:57.437Z,29.23
2022-08-17T02:04:24.468Z,27.43
2022-08-17T02:06:54.246Z,38.60
2022-08-17T02:09:29.589Z,23.57
2022-08-17T02:11:57.946Z,33.90
2022-08-17T02:14:24.819Z,32.00
2022-08-17T02:16:51.937Z,28.10
2022-08-17T02:19:19.006Z,28.33
2022-08-17T02:21:47.069Z,29.23
2022-08-17T02:24:17.131Z,32.30
2022-08-17T02:26:43.789Z,34.97
2022-08-17T02:29:10.414Z,28.90
2022-08-17T02:31:37.829Z,35.57
2022-08-17T02:34:05.430Z,28.27
2022-08-17T02:36:35.471Z,25.83
2022-08-17T02:39:03.520Z,34.47
2022-08-17T02:41:30.442Z,28.73
2022-08-17T02:44:01.361Z,26.77
2022-08-17T02:46:28.544Z,25.60
2022-08-17T02:48:55.286Z,35.03
2022-08-17T02:51:24.319Z,35.83
2022-08-17T02:53:53.353Z,35.90
2022-08-17T02:56:39.925Z,29.17
2022-08-17T02:59:06.615Z,30.17
2022-08-17T03:01:33.242Z,28.43
2022-08-17T03:03:59.936Z,39.93
2022-08-17T03:06:28.087Z,25.67
2022-08-17T03:08:54.669Z,31.13
2022-08-17T03:11:21.337Z,32.47
2022-08-17T03:13:49.326Z,29.50
2022-08-17T03:16:15.929Z,23.13
2022-08-17T03:18:42.503Z,30.90
2022-08-17T03:21:09.580Z,32.47
2022-08-17T03:23:41.112Z,32.70
2022-08-17T03:26:15.320Z,37.63
2022-08-17T03:28:43.014Z,29.87
2022-08-17T03:31:09.887Z,32.80
2022-08-17T03:33:36.827Z,32.10
2022-08-17T03:36:03.624Z,33.00
2022-08-17T03:38:39.370Z,32.63
2022-08-17T03:41:06.638Z,30.37
2022-08-17T03:43:34.459Z,39.07
2022-08-17T03:46:28.979Z,35.83
2022-08-17T03:49:20.601Z,40.57
2022-08-17T03:52:05.918Z,30.93
2022-08-17T03:54:51.453Z,40.60
2022-08-17T03:57:19.079Z,26.47
2022-08-17T03:59:45.931Z,32.63
2022-08-17T04:02:21.400Z,40.30
2022-08-17T04:15:39.073Z,28.87
2022-08-17T04:18:07.433Z,38.33
2022-08-17T04:20:34.428Z,38.60
2022-08-17T04:23:02.150Z,40.77
2022-08-17T04:25:29.690Z,25.30
2022-08-17T04:27:56.828Z,27.40
2022-08-17T04:30:23.739Z,26.13
2022-08-17T04:33:00.786Z,28.70
2022-08-17T04:35:47.193Z,33.33
2022-08-17T04:38:15.304Z,44.37
2022-08-17T04:41:00.660Z,32.47
2022-08-17T04:43:29.063Z,32.33
2022-08-17T04:46:01.159Z,30.23
2022-08-17T04:48:35.793Z,32.03
2022-08-17T04:51:09.453Z,22.90
2022-08-17T04:53:36.203Z,18.33
2022-08-17T04:56:02.979Z,26.63
2022-08-17T04:58:29.578Z,21.57
2022-08-17T05:00:56.749Z,23.23
2022-08-17T05:03:23.378Z,15.60
2022-08-17T05:05:50.168Z,20.43
2022-08-17T05:08:18.614Z,20.47
2022-08-17T05:10:45.816Z,23.37
2022-08-17T05:13:17.170Z,23.20
2022-08-17T05:15:47.596Z,13.80
2022-08-17T05:18:15.127Z,24.87
2022-08-17T05:20:42.415Z,14.73
2022-08-17T05:23:10.594Z,17.73
2022-08-17T05:25:39.131Z,18.40
2022-08-17T05:28:07.223Z,17.23
2022-08-17T05:30:35.054Z,11.80
2022-08-17T05:33:03.345Z,11.73
2022-08-17T05:35:31.473Z,16.50
2022-08-17T05:37:58.117Z,12.40
2022-08-17T05:40:26.053Z,20.63
2022-08-17T05:43:03.177Z,14.10
2022-08-17T05:45:54.705Z,12.77
2022-08-17T05:48:17.076Z,12.60
2022-08-17T05:50:49.987Z,14.87
2022-08-17T05:53:21.635Z,13.27
2022-08-17T05:56:09.882Z,14.17
2022-08-17T05:58:54.121Z,14.83
2022-08-17T06:01:35.433Z,16.20
2022-08-17T06:04:14.367Z,17.40
2022-08-17T06:06:45.516Z,13.47
2022-08-17T06:09:22.860Z,17.20
2022-08-17T06:12:00.399Z,17.47
2022-08-17T06:14:36.110Z,14.33
2022-08-17T06:17:06.230Z,16.50
2022-08-17T06:19:41.000Z,18.37
2022-08-17T06:22:08.682Z,19.70
2022-08-17T06:24:35.314Z,16.67
2022-08-17T06:27:07.700Z,15.40
2022-08-17T06:29:38.542Z,19.93
2022-08-17T06:32:08.417Z,14.57
2022-08-17T06:34:35.194Z,19.10
2022-08-17T06:37:22.894Z,16.93
2022-08-17T06:40:08.150Z,20.50
2022-08-17T06:43:04.982Z,17.53
2022-08-17T06:45:31.192Z,20.70
2022-08-17T06:48:12.072Z,18.67
2022-08-17T06:50:51.001Z,15.73
2022-08-17T06:53:29.843Z,17.30
2022-08-17T06:56:04.035Z,14.43
2022-08-17T06:58:31.477Z,17.00
2022-08-17T07:01:00.917Z,16.83
2022-08-17T07:03:54.862Z,16.10
2022-08-17T07:06:24.102Z,18.30
2022-08-17T07:08:57.900Z,22.20
2022-08-17T07:11:31.884Z,16.10
2022-08-17T07:14:01.645Z,16.00
2022-08-17T07:16:35.236Z,16.03
2022-08-17T07:19:02.035Z,17.40
2022-08-17T07:21:48.090Z,17.10
2022-08-17T07:24:30.649Z,15.33
2022-08-17T07:27:06.396Z,15.33
2022-08-17T07:29:36.538Z,16.27
2022-08-17T07:32:03.466Z,18.00
2022-08-17T07:34:30.190Z,16.90
2022-08-17T07:37:05.275Z,18.47
2022-08-17T07:39:32.115Z,16.20
2022-08-17T07:42:03.001Z,21.53
2022-08-17T07:44:29.609Z,22.50
2022-08-17T07:47:15.371Z,17.53
2022-08-17T07:49:46.173Z,19.47
2022-08-17T07:52:51.217Z,21.23
2022-08-17T07:55:27.650Z,17.10
2022-08-17T07:57:57.464Z,19.43
2022-08-17T08:00:31.578Z,21.43
2022-08-17T08:03:00.977Z,25.03
2022-08-17T08:05:48.541Z,24.97
2022-08-17T08:08:25.581Z,23.93
2022-08-17T08:11:00.444Z,17.57
2022-08-17T08:13:28.860Z,20.20
2022-08-17T08:16:16.081Z,24.13
2022-08-17T08:18:54.719Z,17.70
2022-08-17T08:21:29.612Z,24.70
2022-08-17T08:24:15.135Z,19.00
2022-08-17T08:26:59.136Z,25.50
2022-08-17T08:29:38.130Z,26.27
2022-08-17T08:32:10.949Z,18.67
2022-08-17T08:35:02.471Z,18.53
2022-08-17T08:37:45.281Z,20.43
2022-08-17T08:40:31.088Z,21.30
2022-08-17T08:43:16.543Z,25.80
2022-08-17T08:46:06.506Z,17.03
2022-08-17T08:48:53.741Z,17.40
2022-08-17T08:51:24.651Z,20.83
2022-08-17T08:53:57.690Z,17.47
2022-08-17T08:56:28.140Z,21.43
2022-08-17T08:59:07.677Z,18.07
2022-08-17T09:01:41.919Z,21.33
2022-08-17T09:04:29.271Z,18.30
2022-08-17T09:07:22.096Z,18.73
2022-08-17T09:09:59.286Z,18.60
2022-08-17T09:12:36.285Z,19.03
2022-08-17T09:15:20.959Z,17.97
2022-08-17T09:17:47.721Z,19.33
2022-08-17T09:20:27.935Z,21.37
2022-08-17T09:22:58.142Z,19.87
2022-08-17T09:25:28.425Z,19.40
2022-08-17T09:28:03.783Z,24.47
2022-08-17T09:31:06.013Z,23.30
2022-08-17T09:33:36.162Z,19.10
2022-08-17T09:36:05.592Z,32.93
2022-08-17T09:38:41.836Z,24.23
2022-08-17T09:41:11.570Z,20.40
2022-08-17T09:43:51.461Z,22.13
2022-08-17T09:46:25.121Z,23.80
2022-08-17T09:49:10.815Z,24.60
2022-08-17T09:51:50.266Z,22.67
2022-08-17T09:54:44.674Z,30.23
2022-08-17T09:57:29.886Z,24.83
2022-08-17T10:00:16.796Z,24.83
2022-08-17T10:03:03.086Z,29.00
2022-08-17T10:05:32.755Z,27.97
2022-08-17T10:08:21.851Z,26.43
2022-08-17T10:11:05.802Z,33.87
2022-08-17T10:13:35.480Z,31.87
2022-08-17T10:16:21.438Z,29.73
2022-08-17T10:19:02.027Z,27.20
2022-08-17T10:21:49.959Z,25.63
2022-08-17T10:25:21.418Z,31.57
2022-08-17T10:27:52.653Z,35.43
2022-08-17T10:30:21.246Z,31.90
2022-08-17T10:32:55.130Z,30.57
2022-08-17T10:35:40.596Z,34.60
2022-08-17T10:38:25.940Z,34.73
2022-08-17T10:40:58.601Z,31.80
2022-08-17T10:43:55.843Z,33.03
2022-08-17T10:46:52.270Z,41.73
2022-08-17T10:49:18.928Z,37.27
2022-08-17T10:51:48.031Z,32.77
2022-08-17T10:54:24.052Z,32.33
2022-08-17T10:56:51.880Z,33.80
2022-08-17T10:59:36.815Z,30.67
2022-08-17T11:02:10.057Z,34.93
2022-08-17T11:04:39.623Z,36.53
2022-08-17T11:07:06.233Z,34.50
2022-08-17T11:09:45.143Z,38.57
2022-08-17T11:12:24.462Z,33.33
2022-08-17T11:15:01.483Z,34.10
2022-08-17T11:17:29.551Z,37.83
2022-08-17T11:20:13.092Z,32.57
2022-08-17T11:22:59.012Z,27.43
2022-08-17T11:25:39.736Z,28.27
2022-08-17T11:28:09.385Z,28.73
2022-08-17T11:30:50.871Z,36.07
2022-08-17T11:33:30.297Z,29.17
2022-08-17T11:36:04.196Z,28.93
2022-08-17T11:38:41.287Z,28.90
2022-08-17T11:41:20.101Z,29.07
2022-08-17T11:43:46.807Z,34.20
2022-08-17T11:46:25.524Z,25.63
2022-08-17T11:49:10.865Z,28.40
2022-08-17T11:51:52.896Z,26.77
2022-08-17T11:54:34.111Z,26.80
2022-08-17T11:57:21.554Z,31.27
2022-08-17T11:59:48.381Z,32.70
2022-08-17T12:02:34.980Z,30.40
2022-08-17T12:05:02.651Z,29.23
2022-08-17T12:07:32.433Z,28.47
2022-08-17T12:10:00.159Z,27.17
2022-08-17T12:12:35.878Z,26.40
2022-08-17T12:15:10.449Z,27.83
2022-08-17T12:17:40.767Z,27.77
2022-08-17T12:20:23.360Z,27.73
2022-08-17T12:22:54.863Z,27.33
2022-08-17T12:25:32.955Z,25.97
2022-08-17T12:28:06.582Z,29.20
2022-08-17T12:30:35.103Z,24.33
2022-08-17T12:33:01.778Z,30.53
2022-08-17T12:35:36.045Z,25.00
2022-08-17T12:38:03.631Z,29.13
2022-08-17T12:40:31.734Z,30.83
2022-08-17T12:43:17.987Z,30.80
2022-08-17T12:45:46.281Z,31.50
2022-08-17T12:48:21.647Z,32.43
2022-08-17T12:50:49.614Z,32.97
2022-08-17T12:56:02.542Z,31.80
2022-08-17T12:58:33.258Z,34.40
2022-08-17T13:01:11.042Z,34.03
2022-08-17T13:03:40.821Z,37.07
2022-08-17T13:06:09.661Z,33.17
2022-08-17T13:08:39.402Z,33.67
2022-08-17T13:11:09.366Z,32.97
2022-08-17T13:13:38.401Z,34.70
2022-08-17T13:16:15.543Z,32.77
2022-08-17T13:18:44.163Z,33.40
2022-08-17T13:21:16.601Z,37.00
2022-08-17T13:23:53.661Z,40.23
2022-08-17T13:26:27.348Z,42.07
2022-08-17T13:28:54.572Z,42.53
2022-08-17T13:31:21.379Z,42.47
2022-08-17T13:33:48.360Z,42.23
2022-08-17T13:36:33.707Z,45.00
2022-08-17T13:39:27.699Z,46.90
2022-08-17T13:41:56.173Z,44.73
2022-08-17T13:44:49.920Z,49.67
2022-08-17T13:47:18.342Z,45.80
2022-08-17T13:49:49.090Z,45.90
2022-08-17T13:52:33.453Z,45.93
2022-08-17T13:55:01.877Z,47.50
2022-08-17T13:57:28.707Z,45.37
2022-08-17T14:00:09.644Z,50.03
2022-08-17T14:02:36.295Z,49.57
2022-08-17T14:05:06.406Z,53.67
2022-08-17T14:07:35.287Z,47.00
2022-08-17T14:10:07.550Z,46.40
2022-08-17T14:12:35.159Z,45.40
2022-08-17T14:15:02.530Z,40.50
2022-08-17T14:17:34.993Z,46.03
2022-08-17T14:20:05.516Z,44.40
2022-08-17T14:22:33.866Z,40.70
2022-08-17T14:25:04.946Z,37.40
2022-08-17T14:27:52.362Z,35.63
2022-08-17T14:30:25.933Z,31.20
2022-08-17T14:32:56.593Z,35.67
2022-08-17T14:35:23.927Z,26.53
2022-08-17T14:37:51.994Z,25.27
2022-08-17T14:40:20.917Z,20.50
2022-08-17T14:42:48.081Z,24.67
2022-08-17T14:45:30.367Z,24.03
2022-08-17T14:48:04.654Z,21.27
2022-08-17T14:50:35.462Z,25.90
2022-08-17T14:53:04.580Z,24.37
2022-08-17T14:55:32.486Z,22.00
2022-08-17T14:57:59.579Z,20.63
2022-08-17T15:00:27.007Z,22.90
2022-08-17T15:02:55.415Z,24.67
2022-08-17T15:05:23.533Z,21.77
2022-08-17T15:07:50.743Z,22.13
2022-08-17T15:10:17.835Z,21.67
2022-08-17T15:12:44.489Z,23.37
2022-08-17T15:15:13.964Z,20.50
2022-08-17T15:17:44.702Z,18.17
2022-08-17T15:20:15.161Z,18.47
2022-08-17T15:22:43.002Z,17.60
2022-08-17T15:25:10.819Z,17.43
2022-08-17T15:27:38.231Z,17.47
2022-08-17T15:30:07.259Z,16.70
2022-08-17T15:32:36.040Z,15.60
2022-08-17T15:35:05.515Z,19.40
2022-08-17T15:37:32.665Z,20.03
2022-08-17T15:40:02.576Z,19.67
2022-08-17T15:42:29.630Z,20.80
2022-08-17T15:44:56.938Z,19.77
2022-08-17T15:47:24.152Z,18.53
2022-08-17T15:50:00.241Z,18.20
2022-08-17T15:52:29.743Z,17.33
2022-08-17T15:55:00.858Z,16.83
2022-08-17T15:57:28.251Z,18.83
2022-08-17T15:59:58.644Z,20.10
2022-08-17T16:03:14.331Z,20.77
2022-08-17T16:05:21.872Z,21.60
2022-08-17T16:07:54.840Z,23.87
2022-08-17T16:10:22.906Z,21.00
2022-08-17T16:13:04.710Z,19.70
2022-08-17T16:15:32.507Z,17.80
2022-08-17T16:18:00.429Z,17.73
2022-08-17T16:20:30.677Z,16.57
2022-08-17T16:23:27.189Z,16.77
2022-08-17T16:25:54.689Z,14.83
2022-08-17T16:28:36.061Z,13.50
2022-08-17T16:31:04.321Z,13.00
2022-08-17T16:33:34.327Z,14.47
2022-08-17T16:36:05.216Z,13.40
2022-08-17T16:38:32.706Z,14.37
2022-08-17T16:41:01.313Z,14.90
2022-08-17T16:43:30.614Z,16.80
2022-08-17T16:45:59.264Z,12.37
2022-08-17T16:48:27.917Z,12.73
2022-08-17T16:51:04.057Z,13.20
2022-08-17T16:53:31.715Z,15.40
2022-08-17T16:55:58.812Z,13.07
2022-08-17T16:58:25.835Z,15.50
2022-08-17T17:00:53.665Z,13.70
2022-08-17T17:03:23.590Z,14.33
2022-08-17T17:06:09.429Z,12.27
2022-08-17T17:08:53.052Z,14.53
2022-08-17T17:11:34.318Z,13.83
2022-08-17T17:14:03.825Z,12.30
2022-08-17T17:16:34.262Z,11.67
2022-08-17T17:19:13.848Z,14.17
2022-08-17T17:21:44.347Z,14.53
2022-08-17T17:24:14.401Z,15.47
2022-08-17T17:26:59.123Z,13.07
2022-08-17T17:29:47.398Z,13.30
2022-08-17T17:32:20.850Z,13.57
2022-08-17T17:34:51.172Z,16.67
2022-08-17T17:37:22.668Z,11.13
2022-08-17T17:39:57.038Z,11.57
2022-08-17T17:42:28.455Z,13.20
2022-08-17T17:45:01.644Z,12.07
2022-08-17T17:47:29.244Z,12.30
2022-08-17T17:49:56.538Z,13.37
2022-08-17T17:52:29.970Z,13.03
2022-08-17T17:55:02.954Z,13.53
2022-08-17T17:57:35.439Z,13.40
2022-08-17T18:00:08.843Z,16.83
2022-08-17T18:02:52.062Z,14.67
2022-08-17T18:05:39.006Z,14.20
2022-08-17T18:08:32.310Z,14.90
2022-08-17T18:11:24.044Z,22.10
2022-08-17T18:13:54.397Z,16.97
2022-08-17T18:16:23.000Z,16.27
2022-08-17T18:18:52.584Z,15.23
2022-08-17T18:21:27.747Z,15.93
2022-08-17T18:24:04.004Z,14.60
2022-08-17T18:26:34.136Z,15.23
2022-08-17T18:29:02.517Z,14.97
2022-08-17T18:31:30.469Z,16.17
2022-08-17T18:34:43.488Z,15.83
2022-08-17T18:37:04.734Z,16.67
2022-08-17T18:39:33.064Z,16.10
2022-08-17T18:42:07.523Z,19.00
2022-08-17T18:44:40.493Z,17.57
2022-08-17T18:47:15.102Z,19.30
2022-08-17T18:49:44.456Z,18.40
2022-08-17T18:52:17.850Z,16.10
2022-08-17T18:55:01.430Z,17.67
2022-08-17T18:57:41.784Z,17.50
2022-08-17T19:00:20.959Z,19.10
2022-08-17T19:02:56.344Z,18.83
2022-08-17T19:05:23.491Z,18.57
2022-08-17T19:07:56.053Z,19.17
2022-08-17T19:10:32.428Z,22.03
2022-08-17T19:13:24.190Z,18.07
2022-08-17T19:16:12.070Z,20.77
2022-08-17T19:18:54.657Z,18.57
2022-08-17T19:21:25.438Z,23.27
2022-08-17T19:24:11.832Z,19.93
2022-08-17T19:26:53.375Z,22.20
2022-08-17T19:29:46.702Z,24.13
2022-08-17T19:32:20.183Z,26.10
2022-08-17T19:34:48.149Z,29.77
2022-08-17T19:37:22.503Z,47.93
2022-08-17T19:40:02.366Z,37.40
2022-08-17T19:43:30.447Z,38.47
2022-08-17T19:50:19.612Z,42.30
2022-08-17T19:52:58.516Z,42.37
2022-08-17T19:56:25.834Z,45.90
2022-08-17T19:59:22.734Z,47.13
2022-08-17T20:02:28.546Z,51.70
2022-08-17T20:04:58.497Z,55.23
2022-08-17T20:07:52.726Z,51.07
2022-08-17T20:10:48.106Z,48.33
2022-08-17T20:13:33.387Z,50.90
2022-08-17T20:16:02.740Z,50.10
2022-08-17T20:18:48.380Z,48.60
2022-08-17T20:21:26.610Z,52.17
2022-08-17T20:24:01.819Z,56.13
2022-08-17T20:27:03.443Z,57.53
2022-08-17T20:29:39.621Z,70.83
2022-08-17T20:32:16.438Z,68.20
2022-08-17T20:34:46.438Z,66.30
2022-08-17T20:37:13.384Z,64.07
2022-08-17T20:39:40.068Z,69.20
2022-08-17T20:42:27.876Z,72.90
2022-08-17T20:44:57.975Z,74.80
2022-08-17T20:47:28.471Z,64.67
2022-08-17T20:50:10.549Z,75.60
2022-08-17T20:52:43.333Z,71.80
2022-08-17T20:55:30.359Z,71.97
2022-08-17T20:57:59.765Z,78.97
2022-08-17T21:00:29.550Z,66.97
2022-08-17T21:03:15.865Z,80.37
2022-08-17T21:05:57.231Z,90.60
2022-08-17T21:08:53.783Z,94.83
2022-08-17T21:11:57.134Z,91.93
2022-08-17T21:14:17.907Z,83.23
2022-08-17T21:17:03.456Z,86.53
2022-08-17T21:20:09.795Z,90.40
2022-08-17T21:22:49.049Z,91.63
2022-08-17T21:25:25.098Z,85.70
2022-08-17T21:27:53.120Z,92.83
2022-08-17T21:30:26.074Z,103.10
2022-08-17T21:33:11.136Z,100.40
2022-08-17T21:35:47.359Z,92.87
2022-08-17T21:38:15.342Z,87.80
2022-08-17T21:40:44.824Z,96.23
2022-08-17T21:43:22.931Z,81.93
2022-08-17T21:46:01.126Z,80.33
2022-08-17T21:48:29.465Z,80.13
2022-08-17T21:50:59.262Z,93.20
2022-08-17T21:53:32.876Z,85.67
2022-08-17T21:56:00.162Z,89.23
2022-08-17T21:58:31.114Z,91.27
2022-08-17T22:01:12.779Z,98.17
2022-08-17T22:03:40.838Z,110.97
2022-08-17T22:06:25.016Z,99.90
2022-08-17T22:09:10.394Z,105.53
2022-08-17T22:11:55.850Z,114.80
2022-08-17T22:14:54.112Z,119.10
2022-08-17T22:17:25.976Z,125.30
2022-08-17T22:20:00.504Z,137.77
2022-08-17T22:22:33.581Z,140.47
2022-08-17T22:25:03.047Z,139.77
2022-08-17T22:27:46.414Z,159.33
2022-08-17T22:30:18.773Z,160.57
2022-08-17T22:32:46.919Z,163.47
2022-08-17T22:35:16.861Z,168.90
2022-08-17T22:37:43.685Z,175.67
2022-08-17T22:40:10.578Z,184.53
2022-08-17T22:42:47.515Z,189.63
2022-08-17T22:45:15.010Z,202.57
2022-08-17T22:47:48.938Z,200.50
2022-08-17T22:50:23.580Z,214.90
2022-08-17T22:53:18.705Z,224.43
2022-08-17T22:56:08.537Z,219.97
2022-08-17T22:59:00.707Z,231.30
2022-08-17T23:01:32.482Z,219.00
2022-08-17T23:04:03.979Z,217.23
2022-08-17T23:06:33.874Z,215.70
2022-08-17T23:09:03.632Z,203.23
2022-08-17T23:11:42.872Z,224.63
2022-08-17T23:14:16.394Z,245.13
2022-08-17T23:16:43.063Z,238.37
2022-08-17T23:19:13.779Z,246.10
2022-08-17T23:21:40.763Z,248.03
2022-08-17T23:24:08.928Z,245.27
2022-08-17T23:26:40.829Z,276.53
2022-08-17T23:29:08.910Z,306.13
2022-08-17T23:31:36.368Z,290.43
2022-08-17T23:34:09.137Z,275.37
2022-08-17T23:36:36.580Z,278.67
2022-08-17T23:39:04.077Z,278.93
2022-08-17T23:41:33.038Z,250.47
2022-08-17T23:44:00.423Z,261.13
2022-08-17T23:46:27.074Z,260.37
2022-08-17T23:48:54.145Z,279.43
2022-08-17T23:51:25.309Z,254.73
2022-08-17T23:53:55.510Z,308.67
2022-08-17T23:56:26.140Z,311.73
2022-08-17T23:58:58.440Z,298.17
